Rock Creek, Minnesota
Current Conditions -  °F | °C
As of 5:34 AM on Thursday 27 Nov 2014 (Local Time) from KROS Reporting Station
Broken Clouds Broken Clouds  
Wind Chill: -13°   Ceiling: 11000
Heat Index: -2°   Visibility: 10mi
Dew Point: -7°   Wind: 5mph
Humidity: 81%   Direction: 330°NNW
Pressure: 30.48"   Gusts: NA
Location:  45.76°N, 92.96°W
Report Text: KROS 271134Z AUTO 33004KT 10SM BKN110 M19/M22 A3048 RMK AO2 T11911216
Loading
Personal Weather Stations






























Interactive Weather Map New forecast layout! Learn more

10-Day Weather Forecast

Advertisements
Track Severe Weather on mobile